sensor_id;sensor_type;location;lat;lon;timestamp;pressure;altitude;pressure_sealevel;temperature;humidity
45941;BME280;31858;46.008;8.978;2023-02-22T00:01:31;94698.63;;;8.19;100.00
45941;BME280;31858;46.008;8.978;2023-02-22T00:11:35;94702.84;;;8.20;100.00
45941;BME280;31858;46.008;8.978;2023-02-22T00:21:39;94690.53;;;8.12;100.00
45941;BME280;31858;46.008;8.978;2023-02-22T00:31:40;94690.53;;;8.12;100.00
45941;BME280;31858;46.008;8.978;2023-02-22T00:41:43;94684.19;;;8.16;100.00
45941;BME280;31858;46.008;8.978;2023-02-22T00:51:45;94677.75;;;8.17;100.00
45941;BME280;31858;46.008;8.978;2023-02-22T01:01:48;94680.47;;;8.21;100.00
45941;BME280;31858;46.008;8.978;2023-02-22T01:11:51;94661.53;;;8.23;100.00
45941;BME280;31858;46.008;8.978;2023-02-22T01:21:55;94655.13;;;8.24;100.00
45941;BME280;31858;46.008;8.978;2023-02-22T01:31:58;94649.50;;;8.29;100.00
45941;BME280;31858;46.008;8.978;2023-02-22T01:42:02;94640.44;;;8.30;100.00
45941;BME280;31858;46.008;8.978;2023-02-22T01:52:07;94644.28;;;8.32;100.00
45941;BME280;31858;46.008;8.978;2023-02-22T02:02:11;94637.00;;;8.29;100.00
45941;BME280;31858;46.008;8.978;2023-02-22T02:12:16;94629.03;;;8.29;100.00
45941;BME280;31858;46.008;8.978;2023-02-22T02:22:29;94622.50;;;8.23;100.00
45941;BME280;31858;46.008;8.978;2023-02-22T02:32:50;94613.41;;;8.24;100.00
45941;BME280;31858;46.008;8.978;2023-02-22T02:42:59;94613.00;;;8.22;100.00
45941;BME280;31858;46.008;8.978;2023-02-22T02:53:04;94599.72;;;8.22;100.00
45941;BME280;31858;46.008;8.978;2023-02-22T03:03:19;94591.34;;;8.20;100.00
45941;BME280;31858;46.008;8.978;2023-02-22T03:13:29;94585.69;;;8.22;100.00
45941;BME280;31858;46.008;8.978;2023-02-22T03:23:39;94577.72;;;8.22;100.00
45941;BME280;31858;46.008;8.978;2023-02-22T03:33:49;94573.19;;;8.22;100.00
45941;BME280;31858;46.008;8.978;2023-02-22T03:43:58;94576.53;;;8.19;100.00
45941;BME280;31858;46.008;8.978;2023-02-22T03:54:02;94580.66;;;8.16;100.00
45941;BME280;31858;46.008;8.978;2023-02-22T04:04:04;94578.38;;;8.15;100.00
45941;BME280;31858;46.008;8.978;2023-02-22T04:14:07;94579.09;;;8.12;100.00
45941;BME280;31858;46.008;8.978;2023-02-22T04:24:08;94581.31;;;8.10;100.00
45941;BME280;31858;46.008;8.978;2023-02-22T04:34:12;94577.84;;;8.06;100.00
45941;BME280;31858;46.008;8.978;2023-02-22T04:44:14;94574.72;;;8.00;100.00
45941;BME280;31858;46.008;8.978;2023-02-22T04:54:17;94573.47;;;7.94;100.00
45941;BME280;31858;46.008;8.978;2023-02-22T05:04:18;94571.59;;;7.95;100.00
45941;BME280;31858;46.008;8.978;2023-02-22T05:14:22;94575.78;;;7.96;100.00
45941;BME280;31858;46.008;8.978;2023-02-22T05:24:26;94579.13;;;7.93;100.00
45941;BME280;31858;46.008;8.978;2023-02-22T05:34:28;94585.63;;;7.95;100.00
45941;BME280;31858;46.008;8.978;2023-02-22T05:44:30;94583.66;;;7.92;100.00
45941;BME280;31858;46.008;8.978;2023-02-22T05:54:33;94587.78;;;7.90;100.00
45941;BME280;31858;46.008;8.978;2023-02-22T06:04:35;94583.25;;;7.90;100.00
45941;BME280;31858;46.008;8.978;2023-02-22T06:14:37;94587.44;;;7.91;100.00
45941;BME280;31858;46.008;8.978;2023-02-22T06:24:40;94586.66;;;7.91;100.00
45941;BME280;31858;46.008;8.978;2023-02-22T06:34:43;94596.88;;;7.89;100.00
45941;BME280;31858;46.008;8.978;2023-02-22T06:44:44;94610.38;;;7.80;100.00
45941;BME280;31858;46.008;8.978;2023-02-22T06:54:47;94621.91;;;7.68;100.00
45941;BME280;31858;46.008;8.978;2023-02-22T07:04:49;94620.66;;;7.62;100.00
45941;BME280;31858;46.008;8.978;2023-02-22T07:14:54;94631.25;;;7.62;100.00
45941;BME280;31858;46.008;8.978;2023-02-22T07:24:56;94635.94;;;7.69;100.00
45941;BME280;31858;46.008;8.978;2023-02-22T07:34:59;94623.03;;;7.67;100.00
45941;BME280;31858;46.008;8.978;2023-02-22T07:45:02;94629.16;;;7.71;100.00
45941;BME280;31858;46.008;8.978;2023-02-22T07:55:05;94630.69;;;7.72;100.00
45941;BME280;31858;46.008;8.978;2023-02-22T08:05:08;94625.03;;;7.74;100.00
45941;BME280;31858;46.008;8.978;2023-02-22T08:15:17;94625.53;;;7.79;100.00
45941;BME280;31858;46.008;8.978;2023-02-22T08:25:22;94620.25;;;7.83;100.00
45941;BME280;31858;46.008;8.978;2023-02-22T08:35:25;94618.78;;;7.85;100.00
45941;BME280;31858;46.008;8.978;2023-02-22T08:45:27;94621.88;;;7.88;100.00
45941;BME280;31858;46.008;8.978;2023-02-22T08:55:32;94616.22;;;7.89;100.00
45941;BME280;31858;46.008;8.978;2023-02-22T09:05:35;94618.84;;;7.89;100.00
45941;BME280;31858;46.008;8.978;2023-02-22T09:15:38;94608.31;;;7.93;100.00
45941;BME280;31858;46.008;8.978;2023-02-22T09:25:40;94604.25;;;7.99;100.00
45941;BME280;31858;46.008;8.978;2023-02-22T09:35:44;94591.88;;;8.06;100.00
45941;BME280;31858;46.008;8.978;2023-02-22T09:45:56;94590.81;;;8.11;100.00
45941;BME280;31858;46.008;8.978;2023-02-22T09:56:07;94596.38;;;8.25;100.00
45941;BME280;31858;46.008;8.978;2023-02-22T10:06:11;94587.84;;;8.35;100.00
45941;BME280;31858;46.008;8.978;2023-02-22T10:16:20;94578.56;;;8.48;100.00
45941;BME280;31858;46.008;8.978;2023-02-22T10:26:28;94569.88;;;8.52;100.00
45941;BME280;31858;46.008;8.978;2023-02-22T10:36:32;94561.66;;;8.60;100.00
45941;BME280;31858;46.008;8.978;2023-02-22T10:46:38;94555.69;;;8.67;100.00
45941;BME280;31858;46.008;8.978;2023-02-22T10:56:47;94542.81;;;8.69;100.00
45941;BME280;31858;46.008;8.978;2023-02-22T11:07:06;94531.56;;;8.79;100.00
45941;BME280;31858;46.008;8.978;2023-02-22T11:17:10;94512.56;;;8.77;100.00
45941;BME280;31858;46.008;8.978;2023-02-22T11:27:23;94491.31;;;8.77;100.00
45941;BME280;31858;46.008;8.978;2023-02-22T11:37:31;94479.66;;;8.85;100.00
45941;BME280;31858;46.008;8.978;2023-02-22T11:47:33;94478.66;;;8.97;100.00
45941;BME280;31858;46.008;8.978;2023-02-22T11:57:52;94452.81;;;8.94;100.00
45941;BME280;31858;46.008;8.978;2023-02-22T12:08:07;94449.47;;;9.00;100.00
45941;BME280;31858;46.008;8.978;2023-02-22T12:18:20;94445.38;;;9.06;100.00
45941;BME280;31858;46.008;8.978;2023-02-22T12:28:25;94429.13;;;9.19;100.00
45941;BME280;31858;46.008;8.978;2023-02-22T12:38:34;94427.31;;;9.26;100.00
45941;BME280;31858;46.008;8.978;2023-02-22T12:48:45;94412.19;;;9.34;100.00
45941;BME280;31858;46.008;8.978;2023-02-22T12:58:53;94409.56;;;9.37;100.00
45941;BME280;31858;46.008;8.978;2023-02-22T13:09:07;94399.00;;;9.44;100.00
45941;BME280;31858;46.008;8.978;2023-02-22T13:19:27;94384.22;;;9.47;100.00
45941;BME280;31858;46.008;8.978;2023-02-22T13:29:34;94390.66;;;9.46;100.00
45941;BME280;31858;46.008;8.978;2023-02-22T13:39:55;94381.88;;;9.42;100.00
45941;BME280;31858;46.008;8.978;2023-02-22T13:50:27;94368.19;;;9.40;100.00
45941;BME280;31858;46.008;8.978;2023-02-22T14:00:50;94371.28;;;9.45;100.00
45941;BME280;31858;46.008;8.978;2023-02-22T14:10:54;94360.94;;;9.37;100.00
45941;BME280;31858;46.008;8.978;2023-02-22T14:21:05;94361.22;;;9.25;100.00
45941;BME280;31858;46.008;8.978;2023-02-22T14:31:09;94358.78;;;9.05;100.00
45941;BME280;31858;46.008;8.978;2023-02-22T14:41:14;94354.59;;;9.04;100.00
45941;BME280;31858;46.008;8.978;2023-02-22T14:51:19;94354.28;;;9.13;100.00
45941;BME280;31858;46.008;8.978;2023-02-22T15:01:25;94353.91;;;9.14;100.00
45941;BME280;31858;46.008;8.978;2023-02-22T15:11:30;94354.28;;;9.13;100.00
45941;BME280;31858;46.008;8.978;2023-02-22T15:21:34;94350.41;;;9.03;100.00
45941;BME280;31858;46.008;8.978;2023-02-22T15:31:37;94347.00;;;9.03;100.00
45941;BME280;31858;46.008;8.978;2023-02-22T15:41:41;94343.91;;;8.97;100.00
45941;BME280;31858;46.008;8.978;2023-02-22T15:51:43;94339.69;;;8.93;100.00
45941;BME280;31858;46.008;8.978;2023-02-22T16:01:50;94337.38;;;8.91;100.00
45941;BME280;31858;46.008;8.978;2023-02-22T16:12:06;94344.16;;;8.85;100.00
45941;BME280;31858;46.008;8.978;2023-02-22T16:22:24;94335.75;;;8.79;100.00
45941;BME280;31858;46.008;8.978;2023-02-22T16:32:27;94341.78;;;8.76;100.00
45941;BME280;31858;46.008;8.978;2023-02-22T16:42:30;94333.31;;;8.64;100.00
45941;BME280;31858;46.008;8.978;2023-02-22T16:52:32;94334.75;;;8.58;100.00
45941;BME280;31858;46.008;8.978;2023-02-22T17:02:35;94343.00;;;8.49;100.00
45941;BME280;31858;46.008;8.978;2023-02-22T17:12:37;94350.53;;;8.43;100.00
45941;BME280;31858;46.008;8.978;2023-02-22T17:22:44;94363.38;;;8.41;100.00
45941;BME280;31858;46.008;8.978;2023-02-22T17:32:47;94374.69;;;8.35;100.00
45941;BME280;31858;46.008;8.978;2023-02-22T17:42:51;94373.09;;;8.30;100.00
45941;BME280;31858;46.008;8.978;2023-02-22T17:52:54;94386.72;;;8.29;100.00
45941;BME280;31858;46.008;8.978;2023-02-22T18:02:59;94389.41;;;8.32;100.00
45941;BME280;31858;46.008;8.978;2023-02-22T18:13:01;94390.84;;;8.26;100.00
45941;BME280;31858;46.008;8.978;2023-02-22T18:23:06;94387.34;;;8.18;100.00
45941;BME280;31858;46.008;8.978;2023-02-22T18:33:08;94381.97;;;8.15;100.00
45941;BME280;31858;46.008;8.978;2023-02-22T18:43:11;94374.44;;;8.17;100.00
45941;BME280;31858;46.008;8.978;2023-02-22T18:53:13;94364.22;;;8.19;100.00
45941;BME280;31858;46.008;8.978;2023-02-22T19:03:16;94371.72;;;8.13;100.00
45941;BME280;31858;46.008;8.978;2023-02-22T19:13:18;94368.31;;;8.13;100.00
45941;BME280;31858;46.008;8.978;2023-02-22T19:23:21;94364.06;;;8.08;100.00
45941;BME280;31858;46.008;8.978;2023-02-22T19:33:23;94357.63;;;8.09;100.00
45941;BME280;31858;46.008;8.978;2023-02-22T19:43:26;94362.53;;;8.07;100.00
45941;BME280;31858;46.008;8.978;2023-02-22T19:53:28;94354.19;;;8.05;100.00
45941;BME280;31858;46.008;8.978;2023-02-22T20:03:31;94355.19;;;7.97;100.00
45941;BME280;31858;46.008;8.978;2023-02-22T20:13:34;94356.38;;;8.00;100.00
45941;BME280;31858;46.008;8.978;2023-02-22T20:23:37;94358.66;;;8.01;100.00
45941;BME280;31858;46.008;8.978;2023-02-22T20:33:40;94369.59;;;7.96;100.00
45941;BME280;31858;46.008;8.978;2023-02-22T20:43:43;94370.66;;;7.92;100.00
45941;BME280;31858;46.008;8.978;2023-02-22T20:53:44;94367.34;;;7.98;100.00
45941;BME280;31858;46.008;8.978;2023-02-22T21:03:48;94368.00;;;7.92;100.00
45941;BME280;31858;46.008;8.978;2023-02-22T21:13:50;94368.81;;;7.96;100.00
45941;BME280;31858;46.008;8.978;2023-02-22T21:23:54;94369.53;;;7.93;100.00
45941;BME280;31858;46.008;8.978;2023-02-22T21:33:58;94367.66;;;7.93;100.00
45941;BME280;31858;46.008;8.978;2023-02-22T21:44:01;94349.38;;;8.14;100.00
45941;BME280;31858;46.008;8.978;2023-02-22T21:54:04;94343.91;;;8.04;100.00
45941;BME280;31858;46.008;8.978;2023-02-22T22:04:07;94348.28;;;7.89;100.00
45941;BME280;31858;46.008;8.978;2023-02-22T22:14:09;94341.44;;;7.88;100.00
45941;BME280;31858;46.008;8.978;2023-02-22T22:24:12;94334.13;;;7.81;100.00
45941;BME280;31858;46.008;8.978;2023-02-22T22:34:14;94337.72;;;7.93;100.00
45941;BME280;31858;46.008;8.978;2023-02-22T22:44:17;94341.09;;;7.63;100.00
45941;BME280;31858;46.008;8.978;2023-02-22T22:54:21;94344.06;;;7.58;100.00
45941;BME280;31858;46.008;8.978;2023-02-22T23:04:24;94337.75;;;7.66;100.00
45941;BME280;31858;46.008;8.978;2023-02-22T23:14:28;94343.91;;;7.47;100.00
45941;BME280;31858;46.008;8.978;2023-02-22T23:24:32;94347.31;;;7.48;100.00
45941;BME280;31858;46.008;8.978;2023-02-22T23:34:36;94330.25;;;7.72;100.00
45941;BME280;31858;46.008;8.978;2023-02-22T23:44:41;94325.38;;;7.51;100.00
45941;BME280;31858;46.008;8.978;2023-02-22T23:54:45;94312.94;;;7.55;100.00
